Hamburg Township, Michigan
Current Conditions -  °F | °C
As of 2:53 AM on Friday 31 Oct 2014 (Local Time) from KARB Reporting Station
Overcast Overcast  
Wind Chill: 40°   Ceiling: 5500
Heat Index: 44°   Visibility: 10mi
Dew Point: 34°   Wind: 8mph
Humidity: 68%   Direction: 230°SW
Pressure: 29.96"   Gusts: NA
Location:  42.409°N, 83.7757°W
Report Text: KARB 310653Z AUTO 23007KT 10SM OVC055 07/01 A2996 RMK AO2 SLP149 T00670011
Loading
Personal Weather Stations






























Interactive Weather Map
Tropical Storm Tracking
New forecast layout! Learn more

10-Day Weather Forecast

Advertisements
Track Severe Weather on mobile